createdAt,value
2022-12-31T00:00:23.053Z,2.97
2022-12-31T00:05:25.787Z,4.35
2022-12-31T00:10:29.127Z,1.83
2022-12-31T00:15:32.556Z,3.22
2022-12-31T00:20:35.623Z,2.72
2022-12-31T00:25:38.445Z,2.55
2022-12-31T00:30:41.290Z,2.78
2022-12-31T00:35:44.191Z,1.73
2022-12-31T00:40:46.986Z,1.67
2022-12-31T00:45:49.573Z,1.77
2022-12-31T00:50:52.792Z,2.03
2022-12-31T00:56:05.801Z,2.47
2022-12-31T01:01:20.519Z,1.80
2022-12-31T01:06:23.373Z,1.83
2022-12-31T01:11:29.709Z,1.98
2022-12-31T01:16:32.511Z,1.75
2022-12-31T01:21:36.711Z,1.70
2022-12-31T01:26:39.513Z,2.38
2022-12-31T01:31:42.441Z,2.05
2022-12-31T01:36:45.228Z,3.47
2022-12-31T01:41:48.198Z,1.60
2022-12-31T01:46:55.232Z,1.95
2022-12-31T01:52:04.417Z,1.60
2022-12-31T01:57:08.468Z,2.53
2022-12-31T02:02:11.892Z,1.60
2022-12-31T02:07:14.710Z,2.00
2022-12-31T02:12:20.687Z,1.48
2022-12-31T02:17:23.342Z,2.17
2022-12-31T02:22:25.979Z,1.65
2022-12-31T02:27:54.880Z,1.40
2022-12-31T02:33:02.639Z,1.42
2022-12-31T02:38:08.191Z,1.50
2022-12-31T02:43:10.971Z,1.40
2022-12-31T02:48:23.019Z,1.50
2022-12-31T02:53:44.436Z,1.37
2022-12-31T02:59:23.344Z,1.35
2022-12-31T03:04:32.831Z,1.30
2022-12-31T03:09:36.023Z,1.40
2022-12-31T03:14:38.731Z,1.10
2022-12-31T03:20:00.587Z,1.40
2022-12-31T03:25:23.890Z,1.20
2022-12-31T03:30:27.977Z,1.20
2022-12-31T03:35:32.566Z,1.30
2022-12-31T03:40:38.575Z,1.30
2022-12-31T03:45:41.635Z,1.17
2022-12-31T03:50:44.788Z,1.00
2022-12-31T03:55:51.090Z,1.77
2022-12-31T04:00:53.803Z,1.00
2022-12-31T04:05:56.519Z,1.10
2022-12-31T04:10:59.257Z,1.35
2022-12-31T04:16:01.950Z,0.90
2022-12-31T04:21:05.383Z,1.25
2022-12-31T04:26:08.164Z,1.15
2022-12-31T04:31:11.576Z,1.00
2022-12-31T04:36:14.323Z,1.30
2022-12-31T04:41:18.208Z,0.90
2022-12-31T04:46:22.711Z,0.98
2022-12-31T04:51:26.030Z,1.15
2022-12-31T04:56:29.198Z,1.00
2022-12-31T05:01:33.400Z,1.13
2022-12-31T05:06:36.267Z,0.90
2022-12-31T05:11:39.677Z,1.00
2022-12-31T05:16:42.320Z,1.20
2022-12-31T05:22:05.070Z,1.10
2022-12-31T05:27:07.732Z,1.10
2022-12-31T05:32:10.395Z,0.95
2022-12-31T05:37:13.343Z,1.00
2022-12-31T05:42:16.019Z,1.70
2022-12-31T05:47:18.914Z,1.05
2022-12-31T05:52:21.637Z,1.40
2022-12-31T05:57:24.578Z,3.25
2022-12-31T06:02:27.671Z,1.13
2022-12-31T06:07:30.392Z,1.92
2022-12-31T06:12:33.216Z,1.65
2022-12-31T06:17:35.977Z,1.30
2022-12-31T06:22:38.644Z,1.38
2022-12-31T06:27:41.271Z,1.30
2022-12-31T06:32:44.007Z,1.38
2022-12-31T06:37:46.628Z,2.25
2022-12-31T06:42:52.228Z,1.20
2022-12-31T06:47:57.355Z,1.00
2022-12-31T06:52:59.848Z,1.20
2022-12-31T06:58:02.794Z,1.08
2022-12-31T07:03:05.812Z,1.40
2022-12-31T07:08:27.789Z,0.90
2022-12-31T07:13:36.824Z,0.87
2022-12-31T07:18:45.076Z,1.00
2022-12-31T07:23:47.868Z,1.05
2022-12-31T07:28:55.345Z,1.00
2022-12-31T07:33:59.200Z,1.15
2022-12-31T07:39:06.051Z,1.00
2022-12-31T07:44:23.874Z,1.08
2022-12-31T07:49:27.013Z,1.10
2022-12-31T07:54:30.329Z,1.20
2022-12-31T07:59:56.830Z,0.85
2022-12-31T08:05:15.515Z,0.80
2022-12-31T08:10:27.565Z,1.35
2022-12-31T08:15:30.891Z,0.90
2022-12-31T08:20:36.943Z,1.83
2022-12-31T08:25:54.492Z,1.08
2022-12-31T08:31:02.331Z,1.00
2022-12-31T08:36:11.066Z,1.10
2022-12-31T08:41:24.192Z,1.02
2022-12-31T08:46:34.852Z,1.10
2022-12-31T08:51:37.699Z,0.90
2022-12-31T08:56:40.371Z,1.73
2022-12-31T09:02:06.741Z,0.85
2022-12-31T09:07:10.004Z,1.20
2022-12-31T09:12:22.954Z,1.38
2022-12-31T09:17:25.625Z,1.70
2022-12-31T09:22:28.754Z,1.40
2022-12-31T09:27:38.353Z,3.08
2022-12-31T09:33:01.314Z,1.30
2022-12-31T09:38:07.985Z,1.48
2022-12-31T09:43:34.169Z,1.63
2022-12-31T09:48:49.398Z,2.58
2022-12-31T09:54:11.424Z,1.50
2022-12-31T09:59:23.452Z,1.15
2022-12-31T10:04:41.139Z,1.23
2022-12-31T10:10:01.808Z,2.47
2022-12-31T10:15:23.242Z,3.58
2022-12-31T10:20:45.056Z,1.00
2022-12-31T10:25:56.852Z,1.25
2022-12-31T10:30:59.545Z,1.47
2022-12-31T10:36:09.322Z,0.90
2022-12-31T10:41:24.626Z,1.45
2022-12-31T10:46:42.406Z,3.80
2022-12-31T10:51:54.488Z,4.22
2022-12-31T10:57:15.913Z,4.30
2022-12-31T11:02:19.024Z,1.77
2022-12-31T11:07:31.532Z,3.83
2022-12-31T11:12:50.918Z,1.98
2022-12-31T11:18:12.483Z,1.00
2022-12-31T11:23:22.665Z,1.70
2022-12-31T11:28:37.528Z,1.88
2022-12-31T11:33:50.583Z,1.10
2022-12-31T11:39:00.708Z,1.95
2022-12-31T11:44:13.865Z,3.42
2022-12-31T11:49:35.499Z,1.63
2022-12-31T11:54:58.236Z,1.90
2022-12-31T12:00:21.134Z,1.90
2022-12-31T12:05:24.585Z,2.38
2022-12-31T12:10:35.547Z,7.97
2022-12-31T12:15:41.764Z,1.70
2022-12-31T12:20:46.681Z,2.63
2022-12-31T12:25:49.264Z,1.95
2022-12-31T12:30:56.045Z,1.95
2022-12-31T12:36:17.751Z,1.42
2022-12-31T12:41:22.244Z,2.33
2022-12-31T12:46:31.636Z,2.72
2022-12-31T12:51:57.547Z,2.15
2022-12-31T12:57:06.481Z,1.30
2022-12-31T13:02:23.396Z,2.13
2022-12-31T13:07:32.540Z,1.20
2022-12-31T13:13:21.954Z,3.33
2022-12-31T13:18:11.227Z,1.70
2022-12-31T13:23:21.592Z,2.92
2022-12-31T13:28:25.180Z,3.83
2022-12-31T13:33:37.220Z,1.40
2022-12-31T13:43:57.657Z,1.63
2022-12-31T13:49:03.132Z,2.50
2022-12-31T13:54:18.228Z,1.52
2022-12-31T13:59:20.861Z,3.80
2022-12-31T14:04:27.763Z,3.97
2022-12-31T14:09:31.605Z,2.65
2022-12-31T14:14:43.111Z,3.38
2022-12-31T14:19:52.325Z,1.33
2022-12-31T14:24:56.361Z,1.50
2022-12-31T14:30:07.096Z,2.13
2022-12-31T14:35:19.000Z,3.47
2022-12-31T14:40:39.906Z,1.75
2022-12-31T14:46:01.547Z,3.08
2022-12-31T14:51:04.637Z,2.27
2022-12-31T14:56:27.153Z,3.60
2022-12-31T15:01:29.988Z,4.18
2022-12-31T15:06:41.219Z,4.55
2022-12-31T15:11:59.046Z,7.83
2022-12-31T15:17:07.623Z,9.35
2022-12-31T15:22:29.123Z,4.82
2022-12-31T15:27:32.020Z,8.95
2022-12-31T15:32:40.450Z,6.55
2022-12-31T15:37:43.301Z,4.38
2022-12-31T15:42:51.020Z,4.80
2022-12-31T15:47:58.892Z,5.80
2022-12-31T15:53:02.841Z,5.35
2022-12-31T15:58:07.158Z,5.80
2022-12-31T16:03:19.792Z,4.13
2022-12-31T16:08:24.299Z,6.20
2022-12-31T16:13:27.927Z,9.13
2022-12-31T16:18:40.954Z,6.72
2022-12-31T16:23:49.563Z,5.28
2022-12-31T16:28:52.506Z,6.25
2022-12-31T16:34:05.574Z,6.57
2022-12-31T16:39:17.339Z,6.03
2022-12-31T16:44:27.136Z,5.60
2022-12-31T16:49:30.560Z,5.90
2022-12-31T16:54:37.331Z,6.70
2022-12-31T16:59:41.345Z,10.18
2022-12-31T17:04:56.076Z,9.25
2022-12-31T17:10:08.231Z,9.77
2022-12-31T17:15:16.860Z,7.72
2022-12-31T17:20:24.477Z,7.22
2022-12-31T17:25:28.581Z,15.48
2022-12-31T17:30:35.201Z,6.45
2022-12-31T17:35:42.422Z,7.97
2022-12-31T17:40:53.189Z,6.00
2022-12-31T17:45:56.427Z,5.27
2022-12-31T17:51:00.414Z,5.57
2022-12-31T17:56:05.655Z,7.88
2022-12-31T18:01:09.822Z,6.60
2022-12-31T18:06:16.499Z,6.57
2022-12-31T18:11:21.629Z,9.65
2022-12-31T18:16:25.130Z,9.32
2022-12-31T18:21:33.763Z,6.70
2022-12-31T18:26:36.848Z,6.68
2022-12-31T18:31:39.878Z,5.88
2022-12-31T18:36:42.913Z,10.93
2022-12-31T18:41:47.699Z,9.38
2022-12-31T18:46:51.018Z,9.13
2022-12-31T18:51:55.354Z,9.10
2022-12-31T18:56:58.105Z,12.55
2022-12-31T19:02:00.997Z,8.00
2022-12-31T19:07:03.867Z,12.65
2022-12-31T19:12:06.787Z,25.95
2022-12-31T19:22:15.284Z,8.85
2022-12-31T19:27:18.027Z,12.13
2022-12-31T19:32:20.960Z,21.15
2022-12-31T19:37:24.102Z,11.52
2022-12-31T19:42:27.288Z,8.52
2022-12-31T19:47:29.964Z,23.38
2022-12-31T19:52:32.527Z,10.75
2022-12-31T19:57:35.122Z,11.38
2022-12-31T20:02:38.522Z,11.43
2022-12-31T20:07:41.668Z,11.25
2022-12-31T20:12:44.837Z,13.95
2022-12-31T20:17:47.408Z,15.27
2022-12-31T20:22:50.244Z,13.10
2022-12-31T20:27:54.541Z,15.48
2022-12-31T20:32:57.262Z,15.63
2022-12-31T20:38:00.040Z,15.48
2022-12-31T20:43:03.015Z,14.02
2022-12-31T20:48:05.739Z,14.05
2022-12-31T20:53:08.529Z,10.30
2022-12-31T20:58:11.163Z,10.38
2022-12-31T21:03:36.688Z,18.38
2022-12-31T21:08:36.753Z,16.23
2022-12-31T21:13:39.324Z,15.73
2022-12-31T21:18:42.011Z,28.20
2022-12-31T21:23:44.758Z,17.45
2022-12-31T21:28:47.328Z,17.27
2022-12-31T21:33:50.104Z,15.95
2022-12-31T21:38:52.791Z,19.20
2022-12-31T21:43:55.706Z,16.52
2022-12-31T21:48:59.459Z,13.27
2022-12-31T21:54:02.209Z,11.68
2022-12-31T21:59:25.137Z,10.65
2022-12-31T22:05:00.853Z,13.27
2022-12-31T22:09:50.645Z,9.57
2022-12-31T22:15:14.946Z,8.00
2022-12-31T22:20:31.619Z,16.90
2022-12-31T22:25:35.632Z,11.07
2022-12-31T22:30:39.405Z,19.88
2022-12-31T22:35:42.167Z,9.48
2022-12-31T22:40:44.940Z,7.65
2022-12-31T22:45:47.549Z,9.80
2022-12-31T22:50:56.866Z,9.75
2022-12-31T22:55:59.880Z,11.75
2022-12-31T23:01:06.904Z,14.68
2022-12-31T23:06:09.520Z,51.38
2022-12-31T23:11:12.241Z,68.78
2022-12-31T23:16:33.530Z,165.18
2022-12-31T23:21:55.006Z,197.15
2022-12-31T23:26:58.089Z,193.20
2022-12-31T23:32:00.635Z,134.75
2022-12-31T23:37:03.608Z,125.70
2022-12-31T23:42:06.487Z,164.73
2022-12-31T23:47:09.103Z,131.73
2022-12-31T23:52:11.684Z,128.43
2022-12-31T23:57:14.164Z,140.90
